createdAt,value
2023-03-02T06:49:36.357Z,15.35
2023-03-02T06:50:37.325Z,19.01
2023-03-02T06:51:37.310Z,20.32
2023-03-02T06:52:36.278Z,21.09
2023-03-02T06:53:37.279Z,20.47
2023-03-02T06:54:37.273Z,21.45
2023-03-02T07:01:07.208Z,13.59
2023-03-02T07:20:36.097Z,10.38
2023-03-02T07:22:36.107Z,10.85
2023-03-02T07:27:36.054Z,9.56
2023-03-02T07:30:36.126Z,9.03
2023-03-02T07:34:35.998Z,8.43
2023-03-02T07:52:36.905Z,26.51
2023-03-02T07:53:36.965Z,26.94
2023-03-02T07:55:36.879Z,29.76
2023-03-02T07:56:37.163Z,28.23
2023-03-02T07:58:35.869Z,29.65
2023-03-02T07:59:35.864Z,29.40
2023-03-02T08:00:35.866Z,28.19
2023-03-02T08:01:36.963Z,29.03
2023-03-02T08:02:36.908Z,26.91
2023-03-02T08:03:36.933Z,27.82
2023-03-02T08:06:37.039Z,26.92
2023-03-02T08:07:36.035Z,26.17
2023-03-02T08:08:37.097Z,25.43
2023-03-02T08:10:37.162Z,24.49
2023-03-02T08:11:37.182Z,22.71
2023-03-02T08:13:36.249Z,22.97
2023-03-02T08:14:37.277Z,21.24
2023-03-02T08:15:36.309Z,21.75
2023-03-02T08:16:37.466Z,21.69
2023-03-02T08:17:36.308Z,20.68
2023-03-02T08:19:37.363Z,20.22
2023-03-02T08:20:37.455Z,19.79
2023-03-02T08:21:37.475Z,28.04
2023-03-02T08:22:36.507Z,31.09
2023-03-02T08:24:37.560Z,30.72
2023-03-02T08:25:37.630Z,28.34
2023-03-02T08:26:37.612Z,26.97
2023-03-02T08:27:36.671Z,27.30
2023-03-02T08:28:36.707Z,26.23
2023-03-02T08:29:37.704Z,24.12
2023-03-02T08:30:37.718Z,24.17
2023-03-02T08:31:37.040Z,24.33
2023-03-02T08:32:37.843Z,24.25
2023-03-02T08:33:37.820Z,22.90
2023-03-02T08:34:37.862Z,22.84
2023-03-02T08:35:37.957Z,20.80
2023-03-02T08:36:37.957Z,22.34
2023-03-02T08:37:37.981Z,20.32
2023-03-02T08:38:37.987Z,20.80
2023-03-02T08:39:37.998Z,19.67
2023-03-02T08:40:38.043Z,19.47
2023-03-02T08:41:37.164Z,18.22
2023-03-02T08:42:38.166Z,19.88
2023-03-02T08:43:38.215Z,19.58
2023-03-02T08:44:37.301Z,19.53
2023-03-02T08:45:38.432Z,17.88
2023-03-02T08:46:38.715Z,16.30
2023-03-02T08:47:37.418Z,17.29
2023-03-02T08:48:38.512Z,17.92
2023-03-02T08:50:38.525Z,16.57
2023-03-02T08:51:38.676Z,15.47
